Time;durP1;ratioP1;P1;durP2;ratioP2;P2;SDS_P1;SDS_P2;PMS_P1;PMS_P2;Temp;Humidity;BMP_temperature;BMP_pressure;BME280_temperature;BME280_humidity;BME280_pressure;Samples;Min_cycle;Max_cycle;Signal;HPM_P1;HPM_P2
2023/06/11 00:02:15;;;;;;;3.80;1.10;;;;;;;;;;4972936;28;20042;-63
2023/06/11 00:04:45;;;;;;;6.32;1.17;;;;;;;;;;4954353;28;20380;-64
2023/06/11 00:07:12;;;;;;;3.72;1.10;;;;;;;;;;4946102;28;20053;-63
2023/06/11 00:09:39;;;;;;;4.30;1.10;;;;;;;;;;4941666;28;20042;-62
2023/06/11 00:12:06;;;;;;;3.42;0.90;;;;;;;;;;4970802;28;20475;-64
2023/06/11 00:14:33;;;;;;;4.10;1.30;;;;;;;;;;4960073;28;20737;-62
2023/06/11 00:17:00;;;;;;;2.88;0.93;;;;;;;;;;4958046;28;20046;-63
2023/06/11 00:19:29;;;;;;;5.03;1.13;;;;;;;;;;4949955;28;20510;-63
2023/06/11 00:22:02;;;;;;;2.40;0.85;;;;;;;;;;4968032;28;20046;-64
2023/06/11 00:24:28;;;;;;;3.65;1.00;;;;;;;;;;4967065;28;20054;-61
2023/06/11 00:26:55;;;;;;;5.45;1.05;;;;;;;;;;4950704;28;20895;-63
2023/06/11 00:29:21;;;;;;;6.18;1.10;;;;;;;;;;4966135;28;20072;-62
2023/06/11 00:31:48;;;;;;;5.95;1.17;;;;;;;;;;4961564;28;20068;-63
2023/06/11 00:34:15;;;;;;;3.67;1.10;;;;;;;;;;4955953;28;20042;-64
2023/06/11 00:36:42;;;;;;;3.15;0.90;;;;;;;;;;4962145;28;20129;-61
2023/06/11 00:39:09;;;;;;;2.90;1.10;;;;;;;;;;4956538;28;20045;-61
2023/06/11 00:41:36;;;;;;;6.20;1.10;;;;;;;;;;4957736;28;20042;-61
2023/06/11 00:44:03;;;;;;;3.85;1.30;;;;;;;;;;4956382;28;20066;-67
2023/06/11 00:46:32;;;;;;;6.25;1.20;;;;;;;;;;4955375;28;20034;-65
2023/06/11 00:48:58;;;;;;;2.88;1.10;;;;;;;;;;4960073;28;20038;-64
2023/06/11 00:51:25;;;;;;;3.03;1.02;;;;;;;;;;4966539;28;20102;-61
2023/06/11 00:53:53;;;;;;;3.58;1.08;;;;;;;;;;4945661;28;20756;-62
2023/06/11 00:56:20;;;;;;;3.10;1.25;;;;;;;;;;4944790;28;20034;-62
2023/06/11 00:58:48;;;;;;;3.72;1.20;;;;;;;;;;4937172;28;20384;-61
2023/06/11 01:01:17;;;;;;;3.38;0.95;;;;;;;;;;4964635;28;20046;-63
2023/06/11 01:03:43;;;;;;;3.60;1.10;;;;;;;;;;4962452;28;20478;-64
2023/06/11 01:06:17;;;;;;;6.15;1.20;;;;;;;;;;4945704;28;20521;-63
2023/06/11 01:08:45;;;;;;;3.30;1.33;;;;;;;;;;4953040;28;20042;-62
2023/06/11 01:11:23;;;;;;;4.50;1.23;;;;;;;;;;4962300;28;20223;-63
2023/06/11 01:13:54;;;;;;;4.90;1.33;;;;;;;;;;4962942;28;20077;-64
2023/06/11 01:16:20;;;;;;;4.95;1.05;;;;;;;;;;4961773;28;20038;-63
2023/06/11 01:19:03;;;;;;;3.45;1.02;;;;;;;;;;4962544;28;20662;-63
2023/06/11 01:21:34;;;;;;;3.25;1.23;;;;;;;;;;4960295;28;20147;-62
2023/06/11 01:24:04;;;;;;;3.10;0.93;;;;;;;;;;4944272;28;20609;-62
2023/06/11 01:26:49;;;;;;;3.03;1.00;;;;;;;;;;4938968;28;20271;-63
2023/06/11 01:29:16;;;;;;;3.90;1.20;;;;;;;;;;4961356;28;20237;-64
2023/06/11 01:31:43;;;;;;;5.80;1.00;;;;;;;;;;4960428;28;20137;-62
2023/06/11 01:34:10;;;;;;;3.63;1.02;;;;;;;;;;4964162;28;20049;-66
2023/06/11 01:36:37;;;;;;;4.18;1.20;;;;;;;;;;4953350;28;20064;-62
2023/06/11 01:39:04;;;;;;;4.60;1.30;;;;;;;;;;4970379;28;20061;-62
2023/06/11 01:41:31;;;;;;;5.90;1.20;;;;;;;;;;4951977;28;20039;-63
2023/06/11 01:43:57;;;;;;;2.75;1.05;;;;;;;;;;4970833;28;20051;-63
2023/06/11 01:46:24;;;;;;;3.15;0.93;;;;;;;;;;4970158;28;20042;-62
2023/06/11 01:48:51;;;;;;;7.35;1.40;;;;;;;;;;4970254;28;20038;-64
2023/06/11 01:51:20;;;;;;;3.42;0.95;;;;;;;;;;4970009;28;22654;-64
2023/06/11 01:53:47;;;;;;;7.00;1.30;;;;;;;;;;4970173;28;20041;-62
2023/06/11 01:56:13;;;;;;;6.05;1.13;;;;;;;;;;4970747;28;20628;-62
2023/06/11 01:58:40;;;;;;;4.93;1.10;;;;;;;;;;4969784;28;20039;-63
2023/06/11 02:01:08;;;;;;;3.50;1.13;;;;;;;;;;4970218;28;20054;-63
2023/06/11 02:03:35;;;;;;;3.35;1.20;;;;;;;;;;4969986;28;20053;-64
2023/06/11 02:06:01;;;;;;;6.05;1.10;;;;;;;;;;4970923;28;20042;-62
2023/06/11 02:08:28;;;;;;;2.83;1.13;;;;;;;;;;4945869;28;20098;-64
2023/06/11 02:10:54;;;;;;;6.25;1.20;;;;;;;;;;4970604;28;20523;-63
2023/06/11 02:13:21;;;;;;;3.30;0.98;;;;;;;;;;4951986;28;20133;-64
2023/06/11 02:15:48;;;;;;;4.03;1.20;;;;;;;;;;4970040;28;20160;-64
2023/06/11 02:18:14;;;;;;;4.43;1.33;;;;;;;;;;4952841;28;20398;-62
2023/06/11 02:20:44;;;;;;;5.60;1.02;;;;;;;;;;4970711;28;20139;-61
2023/06/11 02:23:11;;;;;;;3.53;1.20;;;;;;;;;;4971653;28;20051;-62
2023/06/11 02:25:37;;;;;;;4.82;1.02;;;;;;;;;;4970516;28;20568;-61
2023/06/11 02:28:06;;;;;;;4.05;1.30;;;;;;;;;;4971543;28;20053;-64
2023/06/11 02:30:32;;;;;;;4.57;1.08;;;;;;;;;;4968899;28;20062;-63
2023/06/11 02:32:59;;;;;;;4.80;1.02;;;;;;;;;;4970707;28;20038;-61
2023/06/11 02:35:25;;;;;;;3.10;1.10;;;;;;;;;;4970064;28;20034;-63
2023/06/11 02:37:52;;;;;;;5.07;1.25;;;;;;;;;;4970545;28;20050;-63
2023/06/11 02:40:19;;;;;;;2.80;1.00;;;;;;;;;;4969869;28;20039;-60
2023/06/11 02:42:45;;;;;;;3.00;1.10;;;;;;;;;;4971143;28;20054;-61
2023/06/11 02:45:12;;;;;;;4.97;0.95;;;;;;;;;;4954179;28;20120;-61
2023/06/11 02:47:39;;;;;;;3.60;1.13;;;;;;;;;;4970183;28;20049;-62
2023/06/11 02:50:06;;;;;;;4.25;1.00;;;;;;;;;;4970587;28;20042;-62
2023/06/11 02:52:32;;;;;;;3.00;0.90;;;;;;;;;;4970474;28;20073;-62
2023/06/11 02:54:59;;;;;;;2.97;0.95;;;;;;;;;;4971300;28;20046;-62
2023/06/11 02:57:25;;;;;;;8.35;1.45;;;;;;;;;;4946710;28;20085;-59
2023/06/11 02:59:52;;;;;;;2.35;0.70;;;;;;;;;;4968525;28;20034;-63
2023/06/11 03:02:19;;;;;;;3.17;1.00;;;;;;;;;;4967139;28;20057;-62
2023/06/11 03:04:46;;;;;;;3.00;0.90;;;;;;;;;;4968910;28;20056;-63
2023/06/11 03:07:12;;;;;;;4.53;0.80;;;;;;;;;;4968598;28;20042;-63
2023/06/11 03:09:39;;;;;;;3.47;1.30;;;;;;;;;;4944084;28;20042;-60
2023/06/11 03:12:06;;;;;;;3.00;0.88;;;;;;;;;;4968107;28;20485;-61
2023/06/11 03:14:33;;;;;;;5.47;0.90;;;;;;;;;;4968963;28;20038;-63
2023/06/11 03:17:00;;;;;;;2.28;0.80;;;;;;;;;;4969616;28;20569;-62
2023/06/11 03:19:26;;;;;;;2.78;1.00;;;;;;;;;;4969047;28;20102;-62
2023/06/11 03:21:53;;;;;;;5.55;1.08;;;;;;;;;;4970206;28;20503;-64
2023/06/11 03:24:19;;;;;;;3.40;0.90;;;;;;;;;;4970910;28;20061;-66
2023/06/11 03:26:46;;;;;;;3.80;0.85;;;;;;;;;;4962307;28;20090;-63
2023/06/11 03:29:13;;;;;;;4.90;1.00;;;;;;;;;;4969649;28;20145;-64
2023/06/11 03:31:40;;;;;;;3.38;1.00;;;;;;;;;;4970682;28;20041;-61
2023/06/11 03:34:07;;;;;;;3.15;0.63;;;;;;;;;;4947272;28;20419;-61
2023/06/11 03:36:34;;;;;;;2.60;0.90;;;;;;;;;;4969051;28;20093;-63
2023/06/11 03:39:01;;;;;;;3.42;0.90;;;;;;;;;;4969138;28;20141;-61
2023/06/11 03:41:27;;;;;;;6.55;1.35;;;;;;;;;;4968150;28;20042;-62
2023/06/11 03:43:54;;;;;;;4.45;1.08;;;;;;;;;;4970707;28;20738;-61
2023/06/11 03:46:22;;;;;;;5.60;1.00;;;;;;;;;;4968467;28;20039;-62
2023/06/11 03:48:49;;;;;;;4.32;0.95;;;;;;;;;;4967692;28;20038;-63
2023/06/11 03:51:16;;;;;;;3.10;1.00;;;;;;;;;;4969612;28;20030;-64
2023/06/11 03:53:43;;;;;;;3.30;1.02;;;;;;;;;;4969342;28;20503;-65
2023/06/11 03:56:09;;;;;;;3.70;0.85;;;;;;;;;;4968263;28;20113;-63
2023/06/11 03:58:36;;;;;;;5.40;1.30;;;;;;;;;;4964271;28;20092;-61
2023/06/11 04:01:03;;;;;;;9.15;1.20;;;;;;;;;;4967119;28;20096;-63
2023/06/11 04:03:29;;;;;;;3.85;1.00;;;;;;;;;;4967316;28;20414;-64
2023/06/11 04:05:56;;;;;;;9.00;1.55;;;;;;;;;;4969380;28;20215;-62
2023/06/11 04:08:23;;;;;;;3.58;1.15;;;;;;;;;;4967181;28;20045;-66
2023/06/11 04:10:49;;;;;;;2.92;1.05;;;;;;;;;;4965567;28;20062;-62
2023/06/11 04:13:16;;;;;;;3.35;1.02;;;;;;;;;;4969133;28;20124;-62
2023/06/11 04:15:43;;;;;;;3.60;1.00;;;;;;;;;;4968002;28;20802;-65
2023/06/11 04:18:10;;;;;;;2.45;0.75;;;;;;;;;;4969704;28;20057;-67
2023/06/11 04:20:37;;;;;;;5.00;1.23;;;;;;;;;;4968874;28;20141;-66
2023/06/11 04:23:03;;;;;;;3.28;1.35;;;;;;;;;;4952461;28;20097;-61
2023/06/11 04:25:33;;;;;;;5.40;1.17;;;;;;;;;;4950008;28;20046;-64
2023/06/11 04:28:00;;;;;;;3.60;1.25;;;;;;;;;;4967899;28;20050;-63
2023/06/11 04:30:27;;;;;;;6.50;1.75;;;;;;;;;;4967073;28;20664;-63
2023/06/11 04:32:54;;;;;;;4.85;1.45;;;;;;;;;;4967984;28;20132;-63
2023/06/11 04:35:23;;;;;;;3.67;1.15;;;;;;;;;;4967466;28;20497;-61
2023/06/11 04:37:50;;;;;;;3.72;1.10;;;;;;;;;;4967721;28;22236;-63
2023/06/11 04:40:19;;;;;;;3.08;1.10;;;;;;;;;;4968690;28;20095;-65
2023/06/11 04:42:46;;;;;;;3.58;1.05;;;;;;;;;;4967698;28;20054;-63
2023/06/11 04:45:12;;;;;;;2.65;1.10;;;;;;;;;;4961043;28;20042;-63
2023/06/11 04:47:40;;;;;;;3.65;1.23;;;;;;;;;;4967854;28;20785;-60
2023/06/11 04:50:07;;;;;;;3.03;1.00;;;;;;;;;;4968636;28;20601;-62
2023/06/11 04:52:43;;;;;;;3.25;1.08;;;;;;;;;;4976989;28;20486;-61
2023/06/11 04:55:11;;;;;;;3.75;1.02;;;;;;;;;;4977925;28;20046;-62
2023/06/11 04:57:39;;;;;;;4.28;1.13;;;;;;;;;;4976455;28;20589;-62
2023/06/11 05:00:10;;;;;;;4.88;1.30;;;;;;;;;;4976375;28;20038;-62
2023/06/11 05:02:43;;;;;;;3.83;1.10;;;;;;;;;;4976725;28;20117;-63
2023/06/11 05:05:10;;;;;;;3.45;1.20;;;;;;;;;;4978342;28;20042;-62
2023/06/11 05:07:37;;;;;;;4.40;1.13;;;;;;;;;;4960214;28;20048;-61
2023/06/11 05:10:04;;;;;;;3.20;1.10;;;;;;;;;;4978012;28;20775;-60
2023/06/11 05:12:31;;;;;;;5.90;1.08;;;;;;;;;;4977912;28;20049;-61
2023/06/11 05:14:57;;;;;;;7.25;1.60;;;;;;;;;;4978082;28;20038;-62
2023/06/11 05:17:24;;;;;;;3.60;1.20;;;;;;;;;;4960657;28;20038;-61
2023/06/11 05:19:51;;;;;;;3.40;1.10;;;;;;;;;;4979064;28;20042;-61
2023/06/11 05:22:18;;;;;;;3.90;1.20;;;;;;;;;;4977695;28;20394;-62
2023/06/11 05:24:47;;;;;;;5.05;1.10;;;;;;;;;;4975386;28;20516;-63
2023/06/11 05:27:14;;;;;;;6.28;1.10;;;;;;;;;;4961111;28;20720;-62
2023/06/11 05:29:40;;;;;;;3.30;1.20;;;;;;;;;;4976309;28;20038;-62
2023/06/11 05:32:08;;;;;;;3.85;1.23;;;;;;;;;;4977794;28;20054;-62
2023/06/11 05:34:37;;;;;;;5.43;1.20;;;;;;;;;;4976956;28;20042;-62
2023/06/11 05:37:03;;;;;;;3.78;1.08;;;;;;;;;;4977661;28;20125;-61
2023/06/11 05:39:31;;;;;;;3.25;1.20;;;;;;;;;;4975516;28;20113;-62
2023/06/11 05:41:58;;;;;;;5.57;1.33;;;;;;;;;;4977270;28;20061;-62
2023/06/11 05:44:25;;;;;;;4.07;1.10;;;;;;;;;;4978232;28;20053;-61
2023/06/11 05:46:51;;;;;;;4.68;1.23;;;;;;;;;;4954550;28;20110;-60
2023/06/11 05:49:18;;;;;;;4.78;1.20;;;;;;;;;;4979872;28;20129;-63
2023/06/11 05:51:45;;;;;;;3.42;1.40;;;;;;;;;;4978802;28;20755;-61
2023/06/11 05:54:11;;;;;;;3.97;1.45;;;;;;;;;;4956647;28;20053;-61
2023/06/11 05:56:38;;;;;;;4.10;1.20;;;;;;;;;;4982932;28;20130;-63
2023/06/11 05:59:04;;;;;;;3.47;1.23;;;;;;;;;;4982390;28;20406;-61
2023/06/11 06:01:33;;;;;;;3.20;1.23;;;;;;;;;;4980710;28;20038;-61
2023/06/11 06:04:00;;;;;;;3.95;1.23;;;;;;;;;;4964209;28;20101;-61
2023/06/11 06:06:29;;;;;;;3.50;1.20;;;;;;;;;;4980902;28;20080;-63
2023/06/11 06:08:56;;;;;;;3.65;1.20;;;;;;;;;;4955278;28;20034;-61
2023/06/11 06:11:23;;;;;;;4.07;1.25;;;;;;;;;;4979831;28;20039;-63
2023/06/11 06:13:49;;;;;;;3.72;1.27;;;;;;;;;;4978468;28;20081;-62
2023/06/11 06:16:16;;;;;;;3.72;1.00;;;;;;;;;;4978371;28;20041;-64
2023/06/11 06:18:44;;;;;;;2.95;0.90;;;;;;;;;;4976363;28;20104;-64
2023/06/11 06:21:10;;;;;;;3.88;1.10;;;;;;;;;;4993865;28;21399;-63
2023/06/11 06:23:37;;;;;;;2.80;0.95;;;;;;;;;;4980072;28;20603;-62
2023/06/11 06:26:03;;;;;;;3.53;1.00;;;;;;;;;;4978333;28;20464;-63
2023/06/11 06:28:32;;;;;;;2.97;1.00;;;;;;;;;;4977992;28;20038;-63
2023/06/11 06:30:59;;;;;;;4.85;1.10;;;;;;;;;;4979414;28;20086;-61
2023/06/11 06:33:25;;;;;;;3.15;1.13;;;;;;;;;;4977782;28;20053;-61
2023/06/11 06:35:52;;;;;;;5.63;1.20;;;;;;;;;;4980259;28;20486;-60
2023/06/11 06:38:18;;;;;;;4.07;1.20;;;;;;;;;;4978903;28;20133;-63
2023/06/11 06:40:45;;;;;;;3.20;1.20;;;;;;;;;;4979247;28;20049;-61
2023/06/11 06:43:12;;;;;;;4.03;1.38;;;;;;;;;;4961761;28;20078;-62
2023/06/11 06:45:39;;;;;;;4.13;1.13;;;;;;;;;;4977877;28;20052;-61
2023/06/11 06:48:05;;;;;;;3.00;0.90;;;;;;;;;;4960060;28;21302;-63
2023/06/11 06:50:32;;;;;;;5.85;1.20;;;;;;;;;;4976749;28;20057;-63
2023/06/11 06:52:59;;;;;;;3.15;1.17;;;;;;;;;;4977094;28;20046;-60
2023/06/11 06:55:26;;;;;;;3.67;1.40;;;;;;;;;;4976843;28;20030;-61
2023/06/11 06:57:52;;;;;;;3.70;1.33;;;;;;;;;;4962843;28;20495;-62
2023/06/11 07:00:19;;;;;;;5.35;1.60;;;;;;;;;;4980232;28;20759;-63
2023/06/11 07:02:46;;;;;;;4.13;1.60;;;;;;;;;;4979354;28;20117;-61
2023/06/11 07:05:12;;;;;;;6.47;1.83;;;;;;;;;;4980594;28;20138;-62
2023/06/11 07:07:40;;;;;;;4.63;1.60;;;;;;;;;;4979652;28;20038;-61
2023/06/11 07:10:08;;;;;;;4.50;1.67;;;;;;;;;;4978497;28;20046;-63
2023/06/11 07:12:34;;;;;;;4.00;1.50;;;;;;;;;;4979042;28;20145;-62
2023/06/11 07:15:01;;;;;;;5.75;1.20;;;;;;;;;;4979870;28;20050;-64
2023/06/11 07:17:28;;;;;;;4.60;1.30;;;;;;;;;;4978919;28;20057;-62
2023/06/11 07:19:54;;;;;;;5.30;1.50;;;;;;;;;;4980974;28;20062;-63
2023/06/11 07:22:21;;;;;;;4.97;1.67;;;;;;;;;;4980395;28;20049;-63
2023/06/11 07:24:48;;;;;;;4.47;1.50;;;;;;;;;;4979942;28;20093;-61
2023/06/11 07:27:15;;;;;;;3.20;1.20;;;;;;;;;;4962092;28;20589;-60
2023/06/11 07:30:01;;;;;;;3.28;1.20;;;;;;;;;;4915213;29;20563;-61
2023/06/11 07:32:28;;;;;;;3.28;1.17;;;;;;;;;;4915697;29;20497;-62
2023/06/11 07:34:55;;;;;;;6.40;1.33;;;;;;;;;;4916117;29;20401;-63
2023/06/11 07:37:21;;;;;;;3.00;1.20;;;;;;;;;;4916325;29;20182;-63
2023/06/11 07:39:48;;;;;;;5.65;1.38;;;;;;;;;;4916142;29;20063;-62
2023/06/11 07:42:15;;;;;;;2.80;1.13;;;;;;;;;;4905819;29;20067;-64
2023/06/11 07:44:41;;;;;;;3.53;1.25;;;;;;;;;;4896263;29;20491;-62
2023/06/11 07:47:08;;;;;;;5.65;1.42;;;;;;;;;;4885052;29;20054;-61
2023/06/11 07:49:35;;;;;;;3.95;1.30;;;;;;;;;;4883264;29;20100;-61
2023/06/11 07:52:02;;;;;;;4.38;1.30;;;;;;;;;;4896236;29;20147;-61
2023/06/11 07:54:28;;;;;;;7.72;1.48;;;;;;;;;;4897301;29;20044;-60
2023/06/11 07:56:55;;;;;;;3.92;1.20;;;;;;;;;;4881071;29;21014;-59
2023/06/11 07:59:21;;;;;;;3.97;1.30;;;;;;;;;;4891279;29;20482;-59
2023/06/11 08:01:48;;;;;;;3.85;1.35;;;;;;;;;;4948232;28;20102;-61
2023/06/11 08:04:15;;;;;;;3.20;1.15;;;;;;;;;;4961836;28;20046;-60
2023/06/11 08:06:43;;;;;;;3.50;1.38;;;;;;;;;;4963767;28;20038;-61
2023/06/11 08:09:09;;;;;;;3.33;1.35;;;;;;;;;;4961394;28;20402;-62
2023/06/11 08:11:37;;;;;;;3.47;1.20;;;;;;;;;;4961666;28;20487;-61
2023/06/11 08:14:03;;;;;;;3.55;1.02;;;;;;;;;;4961366;28;20061;-62
2023/06/11 08:16:31;;;;;;;3.20;1.25;;;;;;;;;;4959942;28;20170;-60
2023/06/11 08:18:58;;;;;;;5.22;1.33;;;;;;;;;;4960536;28;20129;-59
2023/06/11 08:21:25;;;;;;;5.32;1.33;;;;;;;;;;4958386;28;20412;-61
2023/06/11 08:23:52;;;;;;;4.22;1.20;;;;;;;;;;4953858;28;20075;-61
2023/06/11 08:26:19;;;;;;;3.40;1.20;;;;;;;;;;4948756;28;20093;-63
2023/06/11 08:28:46;;;;;;;3.10;1.20;;;;;;;;;;4952421;28;20133;-62
2023/06/11 08:31:13;;;;;;;3.55;1.20;;;;;;;;;;4945601;28;20035;-62
2023/06/11 08:36:15;;;;;;;2.83;1.23;;;;;;;;;;5385612;23;20550;-65
2023/06/11 08:38:42;;;;;;;3.00;1.00;;;;;;;;;;4951817;28;21711;-64
2023/06/11 08:41:08;;;;;;;5.07;1.50;;;;;;;;;;4959057;28;20506;-62
2023/06/11 08:43:35;;;;;;;5.28;1.15;;;;;;;;;;4958956;28;20085;-63
2023/06/11 08:46:02;;;;;;;3.47;1.20;;;;;;;;;;4959433;28;20044;-63
2023/06/11 08:48:33;;;;;;;9.52;1.35;;;;;;;;;;4959473;28;20903;-63
2023/06/11 08:51:01;;;;;;;4.30;1.42;;;;;;;;;;4958602;28;20038;-62
2023/06/11 08:53:28;;;;;;;3.88;1.25;;;;;;;;;;4961006;28;20053;-63
2023/06/11 08:55:55;;;;;;;3.35;1.00;;;;;;;;;;4961030;28;20149;-64
2023/06/11 08:58:22;;;;;;;3.85;1.27;;;;;;;;;;4960844;28;20810;-63
2023/06/11 09:00:49;;;;;;;4.65;1.35;;;;;;;;;;4960821;28;20794;-62
2023/06/11 09:03:16;;;;;;;3.50;1.48;;;;;;;;;;4961193;28;20522;-64
2023/06/11 09:05:43;;;;;;;5.47;1.20;;;;;;;;;;4959533;28;20395;-62
2023/06/11 09:08:10;;;;;;;3.38;1.10;;;;;;;;;;4961848;28;20035;-63
2023/06/11 09:10:48;;;;;;;3.15;1.10;;;;;;;;;;4960396;28;20061;-63
2023/06/11 09:13:16;;;;;;;3.75;1.30;;;;;;;;;;4955006;28;20400;-65
2023/06/11 09:15:58;;;;;;;8.10;1.55;;;;;;;;;;4935589;28;20042;-63
2023/06/11 09:18:27;;;;;;;3.30;1.50;;;;;;;;;;4965851;28;20081;-61
2023/06/11 09:20:55;;;;;;;3.90;1.38;;;;;;;;;;4960212;28;20618;-63
2023/06/11 09:23:29;;;;;;;4.22;1.50;;;;;;;;;;4960206;28;20058;-64
2023/06/11 09:25:56;;;;;;;4.55;1.40;;;;;;;;;;4958913;28;20042;-64
2023/06/11 09:28:31;;;;;;;3.85;1.65;;;;;;;;;;4960268;28;20035;-62
2023/06/11 09:30:58;;;;;;;3.90;1.48;;;;;;;;;;4960452;28;20576;-62
2023/06/11 09:33:25;;;;;;;3.78;1.38;;;;;;;;;;4955982;28;20506;-63
2023/06/11 09:35:52;;;;;;;5.22;1.70;;;;;;;;;;4960304;28;21019;-63
2023/06/11 09:38:19;;;;;;;4.38;1.40;;;;;;;;;;4941925;28;20046;-66
2023/06/11 09:40:47;;;;;;;3.70;1.55;;;;;;;;;;4959414;28;20042;-63
2023/06/11 09:43:14;;;;;;;4.50;1.58;;;;;;;;;;4962521;28;20491;-63
2023/06/11 09:45:42;;;;;;;3.45;1.50;;;;;;;;;;4964672;28;20054;-62
2023/06/11 09:48:11;;;;;;;4.88;1.40;;;;;;;;;;4957663;28;20053;-63
2023/06/11 09:50:37;;;;;;;3.45;1.40;;;;;;;;;;4963163;28;20057;-63
2023/06/11 09:53:05;;;;;;;3.83;1.50;;;;;;;;;;4965092;28;20043;-62
2023/06/11 09:55:36;;;;;;;6.47;1.80;;;;;;;;;;4964445;28;20031;-62
2023/06/11 09:58:03;;;;;;;3.47;1.40;;;;;;;;;;4965132;28;20053;-63
2023/06/11 10:00:30;;;;;;;4.40;1.60;;;;;;;;;;4963319;28;20407;-63
2023/06/11 10:02:57;;;;;;;3.05;1.30;;;;;;;;;;4964803;28;20620;-62
2023/06/11 10:05:24;;;;;;;5.32;1.40;;;;;;;;;;4963737;28;20053;-64
2023/06/11 10:07:59;;;;;;;3.67;1.50;;;;;;;;;;4964338;28;20467;-62
2023/06/11 10:10:27;;;;;;;3.83;1.45;;;;;;;;;;4963955;28;20042;-63
2023/06/11 10:12:55;;;;;;;4.72;2.00;;;;;;;;;;4965478;28;20474;-63
2023/06/11 10:15:23;;;;;;;3.80;1.70;;;;;;;;;;4968837;28;20046;-62
2023/06/11 10:17:50;;;;;;;6.40;2.20;;;;;;;;;;4964714;28;20038;-61
2023/06/11 10:20:27;;;;;;;4.97;1.80;;;;;;;;;;4979184;28;20111;-63
2023/06/11 10:23:05;;;;;;;3.88;1.67;;;;;;;;;;4967022;28;20110;-63
2023/06/11 10:25:35;;;;;;;3.67;1.55;;;;;;;;;;4967489;28;20038;-62
2023/06/11 10:28:02;;;;;;;3.70;1.60;;;;;;;;;;4963142;28;20478;-62
2023/06/11 10:30:28;;;;;;;4.55;1.52;;;;;;;;;;4963030;28;20264;-62
2023/06/11 10:32:57;;;;;;;4.43;1.63;;;;;;;;;;4960448;28;20178;-63
2023/06/11 10:35:32;;;;;;;3.45;1.60;;;;;;;;;;4962612;28;20139;-63
2023/06/11 10:38:05;;;;;;;4.38;1.73;;;;;;;;;;4961106;28;20051;-62
2023/06/11 10:40:33;;;;;;;5.10;1.75;;;;;;;;;;4949128;28;20405;-64
2023/06/11 10:42:59;;;;;;;3.97;1.75;;;;;;;;;;4963379;28;20505;-63
2023/06/11 10:45:35;;;;;;;7.95;2.00;;;;;;;;;;4962178;28;20049;-60
2023/06/11 10:48:01;;;;;;;5.72;1.75;;;;;;;;;;4957705;28;20940;-62
2023/06/11 10:50:32;;;;;;;3.90;1.60;;;;;;;;;;4961183;28;20047;-61
2023/06/11 10:53:01;;;;;;;4.55;2.00;;;;;;;;;;4963389;28;20058;-63
2023/06/11 10:55:47;;;;;;;4.53;1.70;;;;;;;;;;4957497;28;20042;-63
2023/06/11 10:58:23;;;;;;;4.72;2.10;;;;;;;;;;4956879;28;20047;-63
2023/06/11 11:00:52;;;;;;;4.55;2.05;;;;;;;;;;4955323;28;20125;-63
2023/06/11 11:03:21;;;;;;;5.88;2.03;;;;;;;;;;4954093;28;20567;-62
2023/06/11 11:05:50;;;;;;;4.43;1.73;;;;;;;;;;4952948;28;20035;-64
2023/06/11 11:08:17;;;;;;;5.40;1.98;;;;;;;;;;4953802;28;20047;-63
2023/06/11 11:10:43;;;;;;;9.00;3.40;;;;;;;;;;4944119;28;20122;-62
2023/06/11 11:13:10;;;;;;;8.30;3.75;;;;;;;;;;4953207;28;20063;-62
2023/06/11 11:15:36;;;;;;;15.45;7.93;;;;;;;;;;4953586;28;20126;-62
2023/06/11 11:18:03;;;;;;;21.90;10.82;;;;;;;;;;4953560;28;20534;-63
2023/06/11 11:20:32;;;;;;;23.98;13.20;;;;;;;;;;4954107;28;20050;-62
2023/06/11 11:22:59;;;;;;;17.38;10.25;;;;;;;;;;4955091;28;20053;-62
2023/06/11 11:25:29;;;;;;;19.98;9.63;;;;;;;;;;4954278;28;20407;-62
2023/06/11 11:27:56;;;;;;;15.25;8.23;;;;;;;;;;4954780;28;20540;-62
2023/06/11 11:30:24;;;;;;;16.77;8.95;;;;;;;;;;4955017;28;20873;-62
2023/06/11 11:32:52;;;;;;;31.17;16.92;;;;;;;;;;4958972;28;20038;-62
2023/06/11 11:35:22;;;;;;;33.25;19.50;;;;;;;;;;4965348;28;20038;-61
2023/06/11 11:37:51;;;;;;;35.55;21.58;;;;;;;;;;4964960;28;20051;-62
2023/06/11 11:40:38;;;;;;;40.40;23.55;;;;;;;;;;4960937;28;20047;-60
2023/06/11 11:43:04;;;;;;;52.35;28.27;;;;;;;;;;4962927;28;20047;-62
2023/06/11 11:45:33;;;;;;;45.60;27.23;;;;;;;;;;4962446;28;20047;-61
2023/06/11 11:48:00;;;;;;;55.83;30.50;;;;;;;;;;4960058;28;20054;-61
2023/06/11 11:50:27;;;;;;;59.17;35.00;;;;;;;;;;4960913;28;20105;-61
2023/06/11 11:53:04;;;;;;;64.00;35.65;;;;;;;;;;4963207;28;20050;-61
2023/06/11 11:55:51;;;;;;;67.43;37.72;;;;;;;;;;4961001;28;20038;-61
2023/06/11 11:58:18;;;;;;;75.25;40.13;;;;;;;;;;4960309;28;20040;-61
2023/06/11 12:01:02;;;;;;;86.72;43.65;;;;;;;;;;4947488;28;20039;-60
2023/06/11 12:03:29;;;;;;;83.53;48.15;;;;;;;;;;4964209;28;20061;-61
2023/06/11 12:06:02;;;;;;;108.68;58.65;;;;;;;;;;4955587;28;20132;-61
2023/06/11 12:08:30;;;;;;;111.10;62.13;;;;;;;;;;4950838;28;20046;-60
2023/06/11 12:10:57;;;;;;;111.68;62.60;;;;;;;;;;4953360;28;20034;-59
2023/06/11 12:13:23;;;;;;;108.15;62.88;;;;;;;;;;4959548;28;20070;-60
2023/06/11 12:15:50;;;;;;;125.90;65.53;;;;;;;;;;4956907;28;20061;-60
2023/06/11 12:18:17;;;;;;;118.35;65.90;;;;;;;;;;4955275;28;20719;-59
2023/06/11 12:20:43;;;;;;;114.93;64.07;;;;;;;;;;4955972;28;20043;-62
2023/06/11 12:23:10;;;;;;;120.47;68.75;;;;;;;;;;4957858;28;20059;-64
2023/06/11 12:25:37;;;;;;;125.13;70.03;;;;;;;;;;4956627;28;20527;-61
2023/06/11 12:28:04;;;;;;;125.43;71.90;;;;;;;;;;4956592;28;20089;-61
2023/06/11 12:30:31;;;;;;;122.50;71.18;;;;;;;;;;4958179;28;20519;-61
2023/06/11 12:32:58;;;;;;;133.05;74.05;;;;;;;;;;4954675;28;20069;-62
2023/06/11 12:35:25;;;;;;;123.70;73.43;;;;;;;;;;4957670;28;20042;-61
2023/06/11 12:37:52;;;;;;;135.35;74.50;;;;;;;;;;4960204;28;20051;-63
2023/06/11 12:40:18;;;;;;;130.77;72.60;;;;;;;;;;4956176;28;20038;-63
2023/06/11 12:42:45;;;;;;;135.70;74.05;;;;;;;;;;4955570;28;20042;-62
2023/06/11 12:45:12;;;;;;;123.20;70.90;;;;;;;;;;4955617;28;20071;-63
2023/06/11 12:47:39;;;;;;;110.10;64.03;;;;;;;;;;4961014;28;20041;-61
2023/06/11 12:50:06;;;;;;;135.57;77.15;;;;;;;;;;4963020;28;20138;-61
2023/06/11 12:52:33;;;;;;;132.05;76.07;;;;;;;;;;4963159;28;20495;-62
2023/06/11 12:55:00;;;;;;;130.68;74.22;;;;;;;;;;4965618;28;20045;-62
2023/06/11 12:57:26;;;;;;;130.48;75.93;;;;;;;;;;4965451;28;20042;-62
2023/06/11 12:59:53;;;;;;;127.22;71.72;;;;;;;;;;4963991;28;20038;-61
2023/06/11 13:02:19;;;;;;;122.32;69.63;;;;;;;;;;4966401;28;20047;-63
2023/06/11 13:04:46;;;;;;;121.25;72.35;;;;;;;;;;4964760;28;20061;-62
2023/06/11 13:07:13;;;;;;;127.47;74.30;;;;;;;;;;4965827;28;20035;-62
2023/06/11 13:09:40;;;;;;;131.82;74.75;;;;;;;;;;4963319;28;20317;-62
2023/06/11 13:12:07;;;;;;;127.25;75.95;;;;;;;;;;4963239;28;20394;-62
2023/06/11 13:14:34;;;;;;;131.40;76.95;;;;;;;;;;4961779;28;20119;-62
2023/06/11 13:17:00;;;;;;;131.23;75.18;;;;;;;;;;4962159;28;20403;-62
2023/06/11 13:19:27;;;;;;;121.60;72.32;;;;;;;;;;4961249;28;20533;-63
2023/06/11 13:21:54;;;;;;;125.95;72.47;;;;;;;;;;4962709;28;20038;-63
2023/06/11 13:24:23;;;;;;;126.90;75.10;;;;;;;;;;4958541;28;20050;-62
2023/06/11 13:26:51;;;;;;;128.57;75.25;;;;;;;;;;4959250;28;20079;-63
2023/06/11 13:29:19;;;;;;;129.52;74.05;;;;;;;;;;4964181;28;20030;-62
2023/06/11 13:31:46;;;;;;;122.82;75.88;;;;;;;;;;4962306;28;20087;-63
2023/06/11 13:34:13;;;;;;;121.03;69.50;;;;;;;;;;4964608;28;20085;-63
2023/06/11 13:36:39;;;;;;;119.13;68.43;;;;;;;;;;4964691;28;20055;-63
2023/06/11 13:39:06;;;;;;;119.38;70.03;;;;;;;;;;4964268;28;21795;-61
2023/06/11 13:41:53;;;;;;;131.50;76.63;;;;;;;;;;4967113;28;20039;-62
2023/06/11 13:44:21;;;;;;;117.78;69.47;;;;;;;;;;4938436;28;20474;-62
2023/06/11 13:46:48;;;;;;;129.57;76.80;;;;;;;;;;4937653;28;20039;-60
2023/06/11 13:49:15;;;;;;;125.13;73.10;;;;;;;;;;4939415;28;20167;-62
2023/06/11 13:51:41;;;;;;;144.95;83.43;;;;;;;;;;4941740;28;20043;-61
2023/06/11 13:54:08;;;;;;;128.88;75.60;;;;;;;;;;4941799;28;20052;-60
2023/06/11 13:56:35;;;;;;;136.77;78.95;;;;;;;;;;4940106;28;20039;-62
2023/06/11 13:59:01;;;;;;;132.88;74.35;;;;;;;;;;4940160;28;20043;-62
2023/06/11 14:01:28;;;;;;;132.57;79.88;;;;;;;;;;4943949;28;20039;-61
2023/06/11 14:03:55;;;;;;;133.13;78.68;;;;;;;;;;4937229;28;20060;-61
2023/06/11 14:06:21;;;;;;;130.95;74.60;;;;;;;;;;4935984;28;20040;-63
2023/06/11 14:08:48;;;;;;;131.60;76.90;;;;;;;;;;4937908;28;20043;-61
2023/06/11 14:11:16;;;;;;;135.38;78.50;;;;;;;;;;4938807;28;20043;-59
2023/06/11 14:13:44;;;;;;;127.65;75.03;;;;;;;;;;4939756;28;20044;-61
2023/06/11 14:16:10;;;;;;;127.20;75.82;;;;;;;;;;4959461;28;20074;-63
2023/06/11 14:18:37;;;;;;;129.35;77.15;;;;;;;;;;4964421;28;20039;-61
2023/06/11 14:21:04;;;;;;;111.97;62.67;;;;;;;;;;4964343;28;20750;-60
2023/06/11 14:23:30;;;;;;;131.20;77.70;;;;;;;;;;4966039;28;20165;-60
2023/06/11 14:25:57;;;;;;;134.77;77.78;;;;;;;;;;4962624;28;20043;-60
2023/06/11 14:28:24;;;;;;;125.75;74.10;;;;;;;;;;4964453;28;20066;-61
2023/06/11 14:30:52;;;;;;;129.07;77.82;;;;;;;;;;4963697;28;20062;-61
2023/06/11 14:33:19;;;;;;;134.85;79.97;;;;;;;;;;4966314;28;20042;-60
2023/06/11 14:35:46;;;;;;;123.18;73.25;;;;;;;;;;4966123;28;20443;-62
2023/06/11 14:38:12;;;;;;;107.63;63.10;;;;;;;;;;4966259;28;20047;-61
2023/06/11 14:40:39;;;;;;;124.47;75.78;;;;;;;;;;4966520;28;20039;-61